createdAt,value
2017-02-18T00:00:00.807Z,-8.45
2017-02-18T00:01:00.768Z,-8.42
2017-02-18T00:02:00.743Z,-8.45
2017-02-18T00:03:00.759Z,-8.32
2017-02-18T00:04:00.717Z,-8.21
2017-02-18T00:05:00.652Z,-8.32
2017-02-18T00:06:00.652Z,-8.28
2017-02-18T00:07:00.647Z,-8.4
2017-02-18T00:08:00.604Z,-8.43
2017-02-18T00:09:00.592Z,-8.35
2017-02-18T00:10:00.537Z,-8.43
2017-02-18T00:11:00.549Z,-8.43
2017-02-18T00:12:00.139Z,-8.46
2017-02-18T00:13:00.544Z,-8.29
2017-02-18T00:14:00.461Z,-8.25
2017-02-18T00:15:00.453Z,-8.14
2017-02-18T00:16:00.401Z,-8.17
2017-02-18T00:17:00.415Z,-8.21
2017-02-18T00:18:00.372Z,-8.16
2017-02-18T00:19:00.353Z,-8.21
2017-02-18T00:20:00.329Z,-8.39
2017-02-18T00:21:00.345Z,-8.43
2017-02-18T00:22:00.282Z,-8.47
2017-02-18T00:23:00.243Z,-8.52
2017-02-18T00:24:00.224Z,-8.56
2017-02-18T00:25:00.210Z,-8.53
2017-02-18T00:26:00.213Z,-8.67
2017-02-18T00:27:00.162Z,-8.7
2017-02-18T00:28:00.149Z,-8.56
2017-02-18T00:29:00.121Z,-8.47
2017-02-18T00:30:00.115Z,-8.39
2017-02-18T00:31:00.064Z,-8.45
2017-02-18T00:32:00.041Z,-8.58
2017-02-18T00:32:59.666Z,-8.68
2017-02-18T00:34:00.007Z,-8.7
2017-02-18T00:35:00.003Z,-8.71
2017-02-18T00:35:59.976Z,-8.7
2017-02-18T00:36:59.979Z,-8.6
2017-02-18T00:37:59.946Z,-8.66
2017-02-18T00:38:59.498Z,-8.73
2017-02-18T00:39:59.891Z,-8.68
2017-02-18T00:40:59.868Z,-8.73
2017-02-18T00:41:59.843Z,-8.68
2017-02-18T00:42:59.795Z,-8.5
2017-02-18T00:43:59.798Z,-8.64
2017-02-18T00:44:59.752Z,-8.7
2017-02-18T00:45:59.740Z,-8.74
2017-02-18T00:46:59.706Z,-8.74
2017-02-18T00:47:59.703Z,-8.7
2017-02-18T00:48:59.682Z,-8.66
2017-02-18T00:49:59.712Z,-8.73
2017-02-18T00:50:59.620Z,-8.68
2017-02-18T00:51:59.597Z,-8.67
2017-02-18T00:52:59.592Z,-8.47
2017-02-18T00:53:59.558Z,-8.35
2017-02-18T00:54:59.521Z,-8.25
2017-02-18T00:55:59.491Z,-8.25
2017-02-18T00:56:59.466Z,-8.14
2017-02-18T00:57:59.470Z,-8.21
2017-02-18T00:58:59.437Z,-8.16
2017-02-18T00:59:59.410Z,-8.16
2017-02-18T01:00:59.387Z,-8.06
2017-02-18T01:01:59.405Z,-8.14
2017-02-18T01:02:59.349Z,-8.21
2017-02-18T01:03:59.350Z,-8.17
2017-02-18T01:04:59.300Z,-8.43
2017-02-18T01:05:59.282Z,-8.56
2017-02-18T01:06:59.269Z,-8.79
2017-02-18T01:07:59.241Z,-8.73
2017-02-18T01:08:59.231Z,-8.64
2017-02-18T01:09:59.183Z,-8.61
2017-02-18T01:10:59.149Z,-8.64
2017-02-18T01:11:59.121Z,-8.6
2017-02-18T01:12:59.144Z,-8.64
2017-02-18T01:13:59.152Z,-8.68
2017-02-18T01:14:59.086Z,-8.73
2017-02-18T01:15:59.052Z,-8.89
2017-02-18T01:16:59.053Z,-8.88
2017-02-18T01:17:59.027Z,-8.76
2017-02-18T01:18:58.959Z,-8.67
2017-02-18T01:19:58.939Z,-8.55
2017-02-18T01:20:58.920Z,-8.56
2017-02-18T01:21:58.926Z,-8.49
2017-02-18T01:22:58.891Z,-8.47
2017-02-18T01:23:58.871Z,-8.25
2017-02-18T01:24:58.865Z,-8.24
2017-02-18T01:25:58.824Z,-8.17
2017-02-18T01:26:58.798Z,-8.1
2017-02-18T01:27:58.764Z,-8.14
2017-02-18T01:28:58.786Z,-8.11
2017-02-18T01:29:58.719Z,-8.04
2017-02-18T01:30:58.706Z,-7.98
2017-02-18T01:31:58.697Z,-8.08
2017-02-18T01:32:58.665Z,-7.99
2017-02-18T01:33:58.651Z,-8.07
2017-02-18T01:34:58.219Z,-8.06
2017-02-18T01:35:58.572Z,-8.04
2017-02-18T01:36:58.561Z,-8.06
2017-02-18T01:37:58.557Z,-7.99
2017-02-18T01:38:58.529Z,-8.03
2017-02-18T01:39:58.497Z,-8.08
2017-02-18T01:40:58.476Z,-8.04
2017-02-18T01:41:58.461Z,-7.99
2017-02-18T01:42:58.465Z,-8.07
2017-02-18T01:43:58.419Z,-8.03
2017-02-18T01:44:58.392Z,-7.92
2017-02-18T01:45:58.367Z,-7.92
2017-02-18T01:46:58.346Z,-7.94
2017-02-18T01:47:58.320Z,-7.92
2017-02-18T01:48:58.325Z,-7.99
2017-02-18T01:49:58.253Z,-7.91
2017-02-18T01:50:57.858Z,-7.91
2017-02-18T01:51:58.238Z,-7.84
2017-02-18T01:52:58.215Z,-7.7
2017-02-18T01:53:58.177Z,-7.73
2017-02-18T01:54:58.164Z,-7.84
2017-02-18T01:55:58.142Z,-7.87
2017-02-18T01:56:58.120Z,-7.78
2017-02-18T01:57:58.072Z,-7.82
2017-02-18T01:58:58.095Z,-7.77
2017-02-18T01:59:58.045Z,-7.76
2017-02-18T02:00:58.041Z,-7.85
2017-02-18T02:01:57.628Z,-7.88
2017-02-18T02:02:57.983Z,-7.84
2017-02-18T02:03:57.954Z,-7.92
2017-02-18T02:04:57.933Z,-7.91
2017-02-18T02:05:57.937Z,-7.91
2017-02-18T02:06:57.921Z,-7.92
2017-02-18T02:07:57.874Z,-7.87
2017-02-18T02:08:57.854Z,-7.84
2017-02-18T02:09:57.832Z,-7.76
2017-02-18T02:10:57.816Z,-7.66
2017-02-18T02:11:57.763Z,-7.74
2017-02-18T02:12:57.759Z,-7.82
2017-02-18T02:13:57.752Z,-7.89
2017-02-18T02:14:57.705Z,-7.84
2017-02-18T02:15:57.694Z,-7.82
2017-02-18T02:16:57.275Z,-7.7
2017-02-18T02:17:57.667Z,-7.82
2017-02-18T02:18:57.636Z,-7.71
2017-02-18T02:19:57.208Z,-7.71
2017-02-18T02:20:57.580Z,-7.66
2017-02-18T02:21:57.558Z,-7.67
2017-02-18T02:22:57.533Z,-7.64
2017-02-18T02:23:57.529Z,-7.66
2017-02-18T02:24:57.496Z,-7.64
2017-02-18T02:25:57.450Z,-7.74
2017-02-18T02:26:57.043Z,-7.71
2017-02-18T02:27:57.263Z,-7.67
2017-02-18T02:28:57.017Z,-7.73
2017-02-18T02:29:56.985Z,-7.71
2017-02-18T02:31:11.880Z,-7.64
2017-02-18T02:31:57.527Z,-7.57
2017-02-18T02:32:57.557Z,-7.57
2017-02-18T02:33:57.320Z,-7.46
2017-02-18T02:34:57.294Z,-7.45
2017-02-18T02:35:57.241Z,-7.49
2017-02-18T02:36:57.238Z,-7.45
2017-02-18T02:37:57.185Z,-7.57
2017-02-18T02:38:57.180Z,-7.62
2017-02-18T02:39:57.158Z,-7.59
2017-02-18T02:40:57.132Z,-7.67
2017-02-18T02:41:57.146Z,-7.76
2017-02-18T02:42:57.086Z,-7.88
2017-02-18T02:43:57.095Z,-7.84
2017-02-18T02:44:57.040Z,-7.94
2017-02-18T02:45:57.026Z,-8.06
2017-02-18T02:46:56.992Z,-8.1
2017-02-18T02:47:56.961Z,-8.07
2017-02-18T02:48:56.957Z,-8.03
2017-02-18T02:49:56.929Z,-7.99
2017-02-18T02:50:56.901Z,-7.92
2017-02-18T02:51:56.923Z,-7.96
2017-02-18T02:52:56.842Z,-7.84
2017-02-18T02:53:56.833Z,-7.87
2017-02-18T02:54:56.806Z,-7.85
2017-02-18T02:55:56.774Z,-7.84
2017-02-18T02:56:56.769Z,-7.76
2017-02-18T02:57:56.734Z,-7.73
2017-02-18T02:58:56.945Z,-7.74
2017-02-18T02:59:56.708Z,-7.8
2017-02-18T03:00:56.681Z,-7.94
2017-02-18T03:01:56.651Z,-7.76
2017-02-18T03:02:56.628Z,-7.53
2017-02-18T03:03:56.648Z,-7.49
2017-02-18T03:04:56.386Z,-7.55
2017-02-18T03:05:56.560Z,-7.68
2017-02-18T03:06:56.545Z,-7.68
2017-02-18T03:07:56.559Z,-7.67
2017-02-18T03:08:56.504Z,-7.68
2017-02-18T03:09:56.490Z,-7.57
2017-02-18T03:10:56.450Z,-7.56
2017-02-18T03:11:56.447Z,-7.57
2017-02-18T03:12:56.429Z,-7.56
2017-02-18T03:13:56.386Z,-7.52
2017-02-18T03:14:56.379Z,-7.46
2017-02-18T03:15:56.337Z,-7.37
2017-02-18T03:16:56.319Z,-7.31
2017-02-18T03:17:56.317Z,-7.5
2017-02-18T03:18:56.257Z,-7.46
2017-02-18T03:19:56.255Z,-7.41
2017-02-18T03:20:56.211Z,-7.39
2017-02-18T03:21:56.211Z,-7.52
2017-02-18T03:22:56.173Z,-7.56
2017-02-18T03:23:56.159Z,-7.59
2017-02-18T03:24:56.145Z,-7.6
2017-02-18T03:25:56.140Z,-7.56
2017-02-18T03:26:56.078Z,-7.64
2017-02-18T03:27:55.663Z,-7.74
2017-02-18T03:28:56.074Z,-7.84
2017-02-18T03:29:56.029Z,-7.85
2017-02-18T03:30:55.992Z,-7.89
2017-02-18T03:31:56.225Z,-7.84
2017-02-18T03:32:55.977Z,-7.82
2017-02-18T03:33:55.951Z,-7.96
2017-02-18T03:34:55.917Z,-7.95
2017-02-18T03:35:55.892Z,-7.96
2017-02-18T03:36:56.135Z,-7.94
2017-02-18T03:37:55.841Z,-7.96
2017-02-18T03:38:55.818Z,-8.03
2017-02-18T03:39:55.803Z,-8.06
2017-02-18T03:40:55.805Z,-7.94
2017-02-18T03:41:55.777Z,-7.98
2017-02-18T03:42:55.714Z,-7.95
2017-02-18T03:43:55.342Z,-7.98
2017-02-18T03:44:55.703Z,-7.98
2017-02-18T03:45:55.663Z,-7.99
2017-02-18T03:46:55.670Z,-8.11
2017-02-18T03:47:55.260Z,-8.07
2017-02-18T03:48:55.210Z,-8.06
2017-02-18T03:49:55.600Z,-8.1
2017-02-18T03:50:55.557Z,-8.11
2017-02-18T03:51:55.127Z,-8.24
2017-02-18T03:52:55.500Z,-8.24
2017-02-18T03:53:55.463Z,-8.07
2017-02-18T03:54:55.479Z,-8.24
2017-02-18T03:55:55.429Z,-8.24
2017-02-18T03:56:55.395Z,-8.14
2017-02-18T03:57:55.389Z,-8.16
2017-02-18T03:58:55.377Z,-7.98
2017-02-18T03:59:55.336Z,-8.1
2017-02-18T04:00:55.311Z,-8.07
2017-02-18T04:01:55.317Z,-8.04
2017-02-18T04:02:55.290Z,-8.06
2017-02-18T04:03:55.263Z,-7.98
2017-02-18T04:04:55.228Z,-8.07
2017-02-18T04:05:55.206Z,-8.04
2017-02-18T04:06:55.185Z,-8.11
2017-02-18T04:07:54.793Z,-8.25
2017-02-18T04:08:55.119Z,-8.25
2017-02-18T04:09:55.316Z,-8.27
2017-02-18T04:10:55.097Z,-8.28
2017-02-18T04:11:55.094Z,-8.22
2017-02-18T04:12:55.063Z,-8.13
2017-02-18T04:13:55.010Z,-8.27
2017-02-18T04:14:55.201Z,-8.29
2017-02-18T04:15:54.960Z,-8.21
2017-02-18T04:16:54.964Z,-8.18
2017-02-18T04:17:54.928Z,-8.14
2017-02-18T04:18:54.915Z,-8.21
2017-02-18T04:19:54.880Z,-8.18
2017-02-18T04:20:54.882Z,-8.18
2017-02-18T04:21:54.830Z,-8.27
2017-02-18T04:22:54.816Z,-8.08
2017-02-18T04:23:54.805Z,-8.08
2017-02-18T04:24:54.743Z,-8.1
2017-02-18T04:25:54.767Z,-7.98
2017-02-18T04:26:54.721Z,-8.07
2017-02-18T04:27:54.712Z,-7.96
2017-02-18T04:28:54.697Z,-7.98
2017-02-18T04:29:54.663Z,-8.06
2017-02-18T04:30:54.640Z,-8.04
2017-02-18T04:31:54.611Z,-8.11
2017-02-18T04:32:54.590Z,-8.13
2017-02-18T04:33:54.157Z,-8.16
2017-02-18T04:34:54.554Z,-8.22
2017-02-18T04:35:54.511Z,-8.14
2017-02-18T04:36:54.468Z,-8.16
2017-02-18T04:37:54.501Z,-8.21
2017-02-18T04:38:54.440Z,-8.16
2017-02-18T04:39:54.396Z,-8.21
2017-02-18T04:40:54.399Z,-8.14
2017-02-18T04:41:54.371Z,-8.11
2017-02-18T04:42:54.366Z,-8.14
2017-02-18T04:43:54.327Z,-8.17
2017-02-18T04:44:54.286Z,-8.17
2017-02-18T04:45:54.289Z,-8.16
2017-02-18T04:46:54.258Z,-8.06
2017-02-18T04:47:53.833Z,-8.06
2017-02-18T04:48:54.196Z,-8.1
2017-02-18T04:49:54.203Z,-8.17
2017-02-18T04:50:54.186Z,-8.21
2017-02-18T04:51:54.138Z,-8.37
2017-02-18T04:52:54.117Z,-8.46
2017-02-18T04:53:53.725Z,-8.37
2017-02-18T04:54:54.079Z,-8.43
2017-02-18T04:55:54.051Z,-8.31
2017-02-18T04:56:54.046Z,-8.31
2017-02-18T04:57:54.011Z,-8.45
2017-02-18T04:58:54.002Z,-8.43
2017-02-18T04:59:53.983Z,-8.43
2017-02-18T05:00:53.931Z,-8.46
2017-02-18T05:01:53.916Z,-8.49
2017-02-18T05:02:53.871Z,-8.37
2017-02-18T05:03:53.861Z,-8.4
2017-02-18T05:04:53.865Z,-8.39
2017-02-18T05:05:53.840Z,-8.43
2017-02-18T05:06:53.443Z,-8.4
2017-02-18T05:07:53.777Z,-8.42
2017-02-18T05:08:53.768Z,-8.16
2017-02-18T05:09:53.743Z,-8.03
2017-02-18T05:10:53.765Z,-8.1
2017-02-18T05:11:53.696Z,-7.99
2017-02-18T05:12:53.662Z,-8.04
2017-02-18T05:13:53.660Z,-7.98
2017-02-18T05:14:52.862Z,-7.91
2017-02-18T05:15:53.601Z,-7.95
2017-02-18T05:16:53.570Z,-7.88
2017-02-18T05:17:53.526Z,-7.98
2017-02-18T05:18:53.550Z,-8.21
2017-02-18T05:19:53.542Z,-8.24
2017-02-18T05:20:53.506Z,-8.37
2017-02-18T05:21:53.453Z,-8.4
2017-02-18T05:22:53.069Z,-8.4
2017-02-18T05:23:53.420Z,-8.46
2017-02-18T05:24:53.413Z,-8.4
2017-02-18T05:25:52.965Z,-8.31
2017-02-18T05:26:53.349Z,-8.21
2017-02-18T05:27:53.331Z,-8.22
2017-02-18T05:28:53.305Z,-8.11
2017-02-18T05:29:53.296Z,-8.03
2017-02-18T05:30:53.248Z,-7.98
2017-02-18T05:31:53.225Z,-7.94
2017-02-18T05:32:53.220Z,-7.91
2017-02-18T05:33:53.221Z,-7.84
2017-02-18T05:34:53.179Z,-7.8
2017-02-18T05:35:53.180Z,-7.89
2017-02-18T05:36:53.113Z,-7.71
2017-02-18T05:37:53.113Z,-7.76
2017-02-18T05:38:52.701Z,-7.84
2017-02-18T05:39:52.693Z,-7.82
2017-02-18T05:40:53.022Z,-7.82
2017-02-18T05:41:52.979Z,-7.78
2017-02-18T05:42:52.980Z,-7.88
2017-02-18T05:43:52.972Z,-7.88
2017-02-18T05:44:52.935Z,-7.98
2017-02-18T05:45:52.892Z,-7.94
2017-02-18T05:46:52.868Z,-8.04
2017-02-18T05:47:52.860Z,-7.91
2017-02-18T05:48:52.860Z,-7.94
2017-02-18T05:49:52.852Z,-7.88
2017-02-18T05:50:52.810Z,-7.82
2017-02-18T05:51:52.767Z,-7.78
2017-02-18T05:52:52.754Z,-7.89
2017-02-18T05:53:52.731Z,-7.96
2017-02-18T05:54:52.687Z,-8.06
2017-02-18T05:55:52.678Z,-8.1
2017-02-18T05:56:52.262Z,-8.06
2017-02-18T05:57:52.680Z,-8.06
2017-02-18T05:58:52.633Z,-8.07
2017-02-18T05:59:52.599Z,-8.27
2017-02-18T06:00:52.184Z,-8.14
2017-02-18T06:01:52.537Z,-8.25
2017-02-18T06:02:52.528Z,-8.25
2017-02-18T06:03:52.495Z,-8.24
2017-02-18T06:04:52.485Z,-8.27
2017-02-18T06:05:52.461Z,-8.21
2017-02-18T06:06:52.426Z,-8.06
2017-02-18T06:07:52.421Z,-8.14
2017-02-18T06:08:52.406Z,-8.22
2017-02-18T06:09:52.384Z,-8.17
2017-02-18T06:10:52.328Z,-8.25
2017-02-18T06:11:52.319Z,-8.17
2017-02-18T06:12:51.899Z,-8.17
2017-02-18T06:13:52.262Z,-8.17
2017-02-18T06:14:52.214Z,-8.22
2017-02-18T06:15:52.193Z,-8.28
2017-02-18T06:16:52.200Z,-8.29
2017-02-18T06:17:52.206Z,-8.32
2017-02-18T06:18:52.124Z,-8.39
2017-02-18T06:19:52.122Z,-8.42
2017-02-18T06:20:52.108Z,-8.31
2017-02-18T06:21:52.087Z,-8.32
2017-02-18T06:22:52.076Z,-8.31
2017-02-18T06:23:52.043Z,-8.27
2017-02-18T06:24:51.996Z,-8.17
2017-02-18T06:25:51.982Z,-8.1
2017-02-18T06:26:51.947Z,-8.18
2017-02-18T06:27:51.918Z,-8.08
2017-02-18T06:28:51.910Z,-8.04
2017-02-18T06:29:51.890Z,-7.95
2017-02-18T06:30:51.849Z,-7.8
2017-02-18T06:31:51.849Z,-7.92
2017-02-18T06:32:51.817Z,-7.87
2017-02-18T06:33:51.815Z,-7.8
2017-02-18T06:34:51.786Z,-7.74
2017-02-18T06:35:51.747Z,-7.67
2017-02-18T06:36:51.740Z,-7.6
2017-02-18T06:37:51.717Z,-7.6
2017-02-18T06:38:51.691Z,-7.52
2017-02-18T06:39:51.663Z,-7.56
2017-02-18T06:40:51.644Z,-7.5
2017-02-18T06:41:51.634Z,-7.42
2017-02-18T06:42:51.610Z,-7.45
2017-02-18T06:43:51.559Z,-7.49
2017-02-18T06:44:51.571Z,-7.57
2017-02-18T06:45:51.551Z,-7.59
2017-02-18T06:46:51.488Z,-7.71
2017-02-18T06:47:51.491Z,-7.67
2017-02-18T06:48:51.445Z,-7.57
2017-02-18T06:49:51.427Z,-7.68
2017-02-18T06:50:51.429Z,-7.59
2017-02-18T06:51:51.399Z,-7.77
2017-02-18T06:52:51.376Z,-7.73
2017-02-18T06:53:51.383Z,-7.67
2017-02-18T06:54:51.328Z,-7.68
2017-02-18T06:55:51.311Z,-7.8
2017-02-18T06:56:51.299Z,-8.03
2017-02-18T06:57:51.313Z,-8.06
2017-02-18T06:58:51.239Z,-8.18
2017-02-18T06:59:51.211Z,-8.18
2017-02-18T07:00:51.204Z,-8.06
2017-02-18T07:01:51.194Z,-7.94
2017-02-18T07:02:50.782Z,-7.96
2017-02-18T07:03:51.148Z,-7.94
2017-02-18T07:04:51.086Z,-7.91
2017-02-18T07:05:50.733Z,-7.89
2017-02-18T07:06:51.101Z,-7.91
2017-02-18T07:07:51.063Z,-8.08
2017-02-18T07:08:51.027Z,-8.13
2017-02-18T07:09:51.020Z,-8.04
2017-02-18T07:10:50.998Z,-7.95
2017-02-18T07:11:50.947Z,-7.95
2017-02-18T07:12:50.951Z,-7.96
2017-02-18T07:13:50.929Z,-7.84
2017-02-18T07:14:50.885Z,-7.64
2017-02-18T07:15:50.908Z,-7.56
2017-02-18T07:16:50.869Z,-7.57
2017-02-18T07:17:50.831Z,-7.57
2017-02-18T07:18:50.801Z,-7.59
2017-02-18T07:19:50.782Z,-7.67
2017-02-18T07:20:50.744Z,-7.78
2017-02-18T07:21:50.743Z,-7.77
2017-02-18T07:22:50.737Z,-7.88
2017-02-18T07:23:50.709Z,-7.94
2017-02-18T07:24:50.641Z,-7.95
2017-02-18T07:25:50.623Z,-7.89
2017-02-18T07:26:50.628Z,-8.03
2017-02-18T07:27:50.588Z,-7.89
2017-02-18T07:28:50.587Z,-7.71
2017-02-18T07:29:50.144Z,-7.6
2017-02-18T07:30:50.525Z,-7.64
2017-02-18T07:31:50.486Z,-7.53
2017-02-18T07:32:50.511Z,-7.45
2017-02-18T07:33:50.452Z,-7.17
2017-02-18T07:34:50.459Z,-7.13
2017-02-18T07:35:50.436Z,-6.89
2017-02-18T07:36:50.394Z,-6.9
2017-02-18T07:37:50.357Z,-7.02
2017-02-18T07:38:50.355Z,-7.05
2017-02-18T07:39:50.350Z,-7
2017-02-18T07:40:50.312Z,-6.87
2017-02-18T07:41:50.290Z,-6.78
2017-02-18T07:42:50.250Z,-6.79
2017-02-18T07:43:50.259Z,-6.92
2017-02-18T07:44:50.253Z,-7.05
2017-02-18T07:45:50.203Z,-7.03
2017-02-18T07:46:50.188Z,-7.17
2017-02-18T07:47:50.145Z,-7.14
2017-02-18T07:48:50.135Z,-7.21
2017-02-18T07:49:50.111Z,-7.17
2017-02-18T07:50:50.109Z,-7.07
2017-02-18T07:51:50.068Z,-7.07
2017-02-18T07:52:50.075Z,-7.27
2017-02-18T07:53:50.044Z,-7.37
2017-02-18T07:54:50.015Z,-7.39
2017-02-18T07:55:50.027Z,-7.56
2017-02-18T07:56:49.965Z,-7.59
2017-02-18T07:57:49.927Z,-7.5
2017-02-18T07:58:49.948Z,-7.59
2017-02-18T07:59:49.902Z,-7.6
2017-02-18T08:00:49.881Z,-7.42
2017-02-18T08:01:49.858Z,-7.56
2017-02-18T08:02:49.832Z,-7.73
2017-02-18T08:03:49.823Z,-7.88
2017-02-18T08:04:49.784Z,-8.04
2017-02-18T08:05:49.750Z,-7.84
2017-02-18T08:06:49.743Z,-7.73
2017-02-18T08:07:49.336Z,-7.67
2017-02-18T08:08:49.735Z,-7.53
2017-02-18T08:09:49.669Z,-7.29
2017-02-18T08:10:49.652Z,-7.05
2017-02-18T08:11:49.642Z,-7.1
2017-02-18T08:12:49.617Z,-7.16
2017-02-18T08:13:49.627Z,-7.05
2017-02-18T08:14:49.574Z,-7.13
2017-02-18T08:15:49.531Z,-6.92
2017-02-18T08:16:49.531Z,-7.1
2017-02-18T08:17:49.511Z,-7.23
2017-02-18T08:18:49.485Z,-7.23
2017-02-18T08:19:49.096Z,-7.42
2017-02-18T08:20:49.445Z,-7.34
2017-02-18T08:21:49.424Z,-7.27
2017-02-18T08:22:49.401Z,-7.23
2017-02-18T08:23:49.373Z,-7.24
2017-02-18T08:24:49.355Z,-6.96
2017-02-18T08:25:49.325Z,-7.08
2017-02-18T08:26:49.310Z,-7.13
2017-02-18T08:27:49.296Z,-6.87
2017-02-18T08:28:49.285Z,-6.81
2017-02-18T08:29:49.257Z,-6.55
2017-02-18T08:30:49.233Z,-6.34
2017-02-18T08:31:49.214Z,-6.06
2017-02-18T08:32:49.171Z,-5.64
2017-02-18T08:33:49.186Z,-5.28
2017-02-18T08:34:49.164Z,-5.09
2017-02-18T08:35:49.122Z,-4.72
2017-02-18T08:36:49.140Z,-4.37
2017-02-18T08:37:49.065Z,-3.98
2017-02-18T08:38:49.075Z,-3.89
2017-02-18T08:39:49.055Z,-3.74
2017-02-18T08:40:49.038Z,-3.3
2017-02-18T08:41:48.983Z,-2.97
2017-02-18T08:42:48.958Z,-2.97
2017-02-18T08:43:48.966Z,-2.65
2017-02-18T08:44:48.950Z,-2.48
2017-02-18T08:45:48.959Z,-3.12
2017-02-18T08:46:48.932Z,-3.15
2017-02-18T08:47:48.910Z,-3.08
2017-02-18T08:48:48.892Z,-3.25
2017-02-18T08:49:48.857Z,-3.4
2017-02-18T08:50:48.828Z,-3.62
2017-02-18T08:51:48.826Z,-3.98
2017-02-18T08:52:48.783Z,-4.36
2017-02-18T08:53:48.793Z,-4.13
2017-02-18T08:54:48.766Z,-3.64
2017-02-18T08:55:48.744Z,-3.19
2017-02-18T08:56:48.743Z,-2.64
2017-02-18T08:57:48.705Z,-2.29
2017-02-18T08:58:48.700Z,-1.96
2017-02-18T08:59:48.698Z,-1.68
2017-02-18T09:00:48.658Z,-1.74
2017-02-18T09:01:48.636Z,-1.86
2017-02-18T09:02:48.630Z,-1.93
2017-02-18T09:03:48.595Z,-2.04
2017-02-18T09:04:48.587Z,-2
2017-02-18T09:05:48.576Z,-2.06
2017-02-18T09:06:48.537Z,-1.93
2017-02-18T09:07:48.539Z,-1.82
2017-02-18T09:08:48.548Z,-1.74
2017-02-18T09:09:48.491Z,-1.7
2017-02-18T09:10:48.518Z,-1.56
2017-02-18T09:11:48.488Z,-1.43
2017-02-18T09:12:48.450Z,-1.23
2017-02-18T09:13:48.463Z,-1.11
2017-02-18T09:14:48.414Z,-0.92
2017-02-18T09:15:48.401Z,-0.83
2017-02-18T09:16:48.388Z,-0.81
2017-02-18T09:17:48.395Z,-0.6
2017-02-18T09:18:48.374Z,-0.6
2017-02-18T09:19:48.348Z,-0.76
2017-02-18T09:20:48.337Z,-0.63
2017-02-18T09:21:48.305Z,-0.58
2017-02-18T09:22:48.282Z,-0.7
2017-02-18T09:23:48.269Z,-0.67
2017-02-18T09:24:48.325Z,-0.89
2017-02-18T09:25:48.250Z,-0.99
2017-02-18T09:26:48.242Z,-0.99
2017-02-18T09:27:48.216Z,-1.02
2017-02-18T09:28:48.190Z,-1.17
2017-02-18T09:29:47.773Z,-1.35
2017-02-18T09:30:48.170Z,-1.61
2017-02-18T09:31:48.166Z,-1.59
2017-02-18T09:32:48.120Z,-1.54
2017-02-18T09:33:48.104Z,-1.38
2017-02-18T09:34:48.108Z,-1.32
2017-02-18T09:35:47.707Z,-1.33
2017-02-18T09:36:48.085Z,-1.31
2017-02-18T09:37:48.036Z,-1.36
2017-02-18T09:38:48.026Z,-1.08
2017-02-18T09:39:47.992Z,-0.97
2017-02-18T09:40:47.605Z,-0.78
2017-02-18T09:41:47.992Z,-0.55
2017-02-18T09:42:47.988Z,-0.32
2017-02-18T09:43:47.934Z,-0.12
2017-02-18T09:44:47.930Z,-0.05
2017-02-18T09:45:47.932Z,0.1
2017-02-18T09:46:47.897Z,0.02
2017-02-18T09:47:47.864Z,-0.03
2017-02-18T09:48:47.868Z,0.12
2017-02-18T09:49:47.847Z,-0.17
2017-02-18T09:50:47.868Z,-0.73
2017-02-18T09:51:47.813Z,-0.68
2017-02-18T09:52:47.811Z,-0.53
2017-02-18T09:53:47.768Z,-0.19
2017-02-18T09:54:47.766Z,0.12
2017-02-18T09:55:47.764Z,0.19
2017-02-18T09:56:47.762Z,0.35
2017-02-18T09:57:47.321Z,0.35
2017-02-18T09:58:47.708Z,0.31
2017-02-18T09:59:47.690Z,0.12
2017-02-18T10:00:47.682Z,0.13
2017-02-18T10:01:47.665Z,-0.09
2017-02-18T10:02:47.687Z,-0.35
2017-02-18T10:03:47.659Z,-0.55
2017-02-18T10:04:47.617Z,-0.86
2017-02-18T10:05:47.594Z,-1.21
2017-02-18T10:06:47.582Z,-1.41
2017-02-18T10:07:47.560Z,-1.28
2017-02-18T10:08:47.622Z,-1.31
2017-02-18T10:09:47.532Z,-1.29
2017-02-18T10:10:47.516Z,-0.93
2017-02-18T10:11:47.482Z,-0.89
2017-02-18T10:12:47.466Z,-0.55
2017-02-18T10:13:47.450Z,-0.34
2017-02-18T10:14:47.066Z,-0.23
2017-02-18T10:15:47.452Z,-0.14
2017-02-18T10:16:47.438Z,-0.14
2017-02-18T10:17:47.027Z,-0.23
2017-02-18T10:18:47.050Z,-0.34
2017-02-18T10:19:46.999Z,-0.5
2017-02-18T10:20:47.379Z,-1.08
2017-02-18T10:21:47.344Z,-1.38
2017-02-18T10:22:47.309Z,-1.33
2017-02-18T10:23:47.316Z,-1.05
2017-02-18T10:24:47.291Z,-0.73
2017-02-18T10:25:47.252Z,-0.52
2017-02-18T10:26:47.258Z,-0.34
2017-02-18T10:27:47.249Z,-0.21
2017-02-18T10:28:47.248Z,-0.01
2017-02-18T10:29:47.214Z,0.31
2017-02-18T10:30:47.219Z,0.28
2017-02-18T10:31:47.166Z,0.37
2017-02-18T10:32:47.149Z,0.33
2017-02-18T10:33:47.167Z,0.19
2017-02-18T10:34:47.133Z,-0.01
2017-02-18T10:35:47.139Z,-0.06
2017-02-18T10:36:47.103Z,-0.32
2017-02-18T10:37:47.114Z,-0.31
2017-02-18T10:38:47.117Z,-0.31
2017-02-18T10:39:47.059Z,-0.17
2017-02-18T10:40:47.051Z,-0.39
2017-02-18T10:41:47.057Z,-0.31
2017-02-18T10:42:47.034Z,-0.02
2017-02-18T10:43:46.999Z,0.13
2017-02-18T10:44:46.573Z,0.2
2017-02-18T10:45:46.975Z,0.35
2017-02-18T10:46:46.964Z,0.62
2017-02-18T10:47:46.939Z,0.64
2017-02-18T10:48:46.921Z,0.49
2017-02-18T10:49:46.883Z,0.43
2017-02-18T10:50:46.896Z,0.59
2017-02-18T10:51:46.859Z,0.71
2017-02-18T10:52:46.844Z,0.48
2017-02-18T10:53:46.844Z,0.63
2017-02-18T10:54:46.828Z,0.93
2017-02-18T10:55:46.801Z,1.18
2017-02-18T10:56:46.808Z,1.17
2017-02-18T10:57:46.798Z,1.13
2017-02-18T10:58:46.797Z,1.18
2017-02-18T10:59:46.779Z,1.16
2017-02-18T11:00:46.739Z,1.17
2017-02-18T11:01:46.721Z,1.17
2017-02-18T11:02:46.716Z,1.14
2017-02-18T11:03:46.724Z,1.16
2017-02-18T11:04:46.663Z,1.18
2017-02-18T11:05:46.644Z,1.18
2017-02-18T11:06:46.647Z,1.13
2017-02-18T11:07:46.681Z,1.18
2017-02-18T11:08:46.662Z,1.16
2017-02-18T11:09:46.623Z,1.16
2017-02-18T11:10:46.610Z,1.06
2017-02-18T11:11:46.595Z,1.04
2017-02-18T11:12:46.578Z,0.95
2017-02-18T11:13:46.182Z,0.49
2017-02-18T11:14:46.546Z,0.13
2017-02-18T11:15:46.549Z,-0.01
2017-02-18T11:16:46.585Z,-0.17
2017-02-18T11:17:46.513Z,-0.5
2017-02-18T11:18:46.092Z,-0.8
2017-02-18T11:19:46.487Z,-0.7
2017-02-18T11:20:46.069Z,-0.17
2017-02-18T11:21:46.441Z,0.26
2017-02-18T11:22:46.432Z,0.68
2017-02-18T11:23:46.438Z,0.98
2017-02-18T11:24:46.411Z,1.06
2017-02-18T11:25:46.381Z,0.99
2017-02-18T11:26:46.381Z,1.13
2017-02-18T11:27:45.960Z,1.24
2017-02-18T11:28:46.359Z,1.07
2017-02-18T11:29:46.333Z,1.11
2017-02-18T11:30:45.942Z,1.18
2017-02-18T11:31:46.327Z,1.26
2017-02-18T11:32:46.270Z,1.2
2017-02-18T11:33:45.874Z,1.14
2017-02-18T11:34:46.269Z,1.13
2017-02-18T11:35:46.246Z,1.26
2017-02-18T11:36:46.216Z,1.21
2017-02-18T11:37:46.231Z,1.16
2017-02-18T11:38:46.227Z,1.14
2017-02-18T11:39:46.211Z,1.2
2017-02-18T11:40:46.189Z,1.26
2017-02-18T11:41:46.176Z,1.24
2017-02-18T11:42:45.781Z,1.21
2017-02-18T11:43:46.129Z,1.24
2017-02-18T11:44:46.135Z,1.31
2017-02-18T11:45:46.114Z,1.35
2017-02-18T11:46:46.104Z,1.38
2017-02-18T11:47:46.066Z,1.49
2017-02-18T11:48:46.084Z,1.52
2017-02-18T11:49:46.064Z,1.64
2017-02-18T11:50:46.074Z,1.7
2017-02-18T11:51:46.040Z,1.79
2017-02-18T11:52:46.040Z,1.85
2017-02-18T11:53:46.016Z,1.9
2017-02-18T11:54:45.981Z,1.65
2017-02-18T11:55:45.976Z,1.89
2017-02-18T11:56:45.982Z,1.88
2017-02-18T11:57:51.514Z,1.75
2017-02-18T11:58:45.976Z,1.88
2017-02-18T11:59:45.547Z,1.81
2017-02-18T12:00:45.928Z,1.98
2017-02-18T12:01:45.915Z,2
2017-02-18T12:02:45.894Z,1.85
2017-02-18T12:03:45.887Z,1.81
2017-02-18T12:04:45.878Z,1.92
2017-02-18T12:05:45.877Z,2.04
2017-02-18T12:06:45.837Z,2
2017-02-18T12:07:45.821Z,2.14
2017-02-18T12:08:45.821Z,2.22
2017-02-18T12:09:45.785Z,2.18
2017-02-18T12:10:45.787Z,1.88
2017-02-18T12:11:45.788Z,1.95
2017-02-18T12:12:45.757Z,2
2017-02-18T12:13:45.767Z,1.95
2017-02-18T12:14:45.708Z,2.15
2017-02-18T12:15:45.708Z,2.22
2017-02-18T12:16:45.728Z,2.3
2017-02-18T12:17:45.730Z,2.26
2017-02-18T12:18:45.685Z,2.26
2017-02-18T12:19:45.656Z,2.41
2017-02-18T12:20:45.276Z,2.29
2017-02-18T12:21:45.262Z,2.22
2017-02-18T12:22:45.627Z,2.32
2017-02-18T12:23:45.614Z,2.37
2017-02-18T12:24:45.215Z,2.38
2017-02-18T12:25:45.590Z,2.3
2017-02-18T12:26:45.570Z,2.29
2017-02-18T12:27:45.568Z,2.29
2017-02-18T12:28:45.550Z,2.22
2017-02-18T12:29:45.140Z,2.07
2017-02-18T12:30:45.538Z,2.07
2017-02-18T12:31:45.532Z,1.95
2017-02-18T12:32:45.115Z,2
2017-02-18T12:33:45.468Z,2.08
2017-02-18T12:34:45.475Z,2.18
2017-02-18T12:35:45.457Z,2.4
2017-02-18T12:36:45.464Z,2.48
2017-02-18T12:37:45.445Z,1.92
2017-02-18T12:38:45.404Z,1.5
2017-02-18T12:39:45.388Z,1.35
2017-02-18T12:40:45.426Z,1.32
2017-02-18T12:41:45.371Z,1.38
2017-02-18T12:42:45.355Z,1.34
2017-02-18T12:43:45.358Z,1.29
2017-02-18T12:44:45.345Z,1.36
2017-02-18T12:45:45.322Z,1.34
2017-02-18T12:46:45.333Z,1.28
2017-02-18T12:47:45.296Z,1.07
2017-02-18T12:48:45.258Z,0.75
2017-02-18T12:49:44.875Z,0.59
2017-02-18T12:50:45.262Z,0.37
2017-02-18T12:51:45.263Z,0.19
2017-02-18T12:52:45.220Z,0.1
2017-02-18T12:53:45.197Z,-0.13
2017-02-18T12:54:45.184Z,-0.27
2017-02-18T12:55:45.166Z,-0.41
2017-02-18T12:56:45.183Z,-0.62
2017-02-18T12:57:45.173Z,-0.8
2017-02-18T12:58:45.131Z,-0.45